• Join FlightAware (Why Join?)
  • Login
  • US Flag 
02:57PM EDT


 

Airport Tracker/Info


-or-


 

Live Flight TrackerFlight Track Log ✈ UAL5832 ✈ 26-Apr-2013 ✈ KABE - KORD

Flight Track Log - Related Links

Times and Time Zones

All times are in EDT time to prevent confusion due to time zone crossing. See the UAL5832 flight status page for this flight to view local times or setup timezone preferences in your user account.

Time Position Orientation Groundspeed Altitude Reporting Facility
EDT Latitude Longitude Course Direction KTS MPH feet Rate Location/Type
05:38PM 40.6214 -75.4903 264° West 180 207 2,500  Level New York Center
05:39PM 40.6003 -75.5517 246° West 180 207 4,800 2,220 Climbing New York Center
05:40PM 40.5911 -75.6247 261° West 206 237 6,900 2,400 Climbing New York Center
05:41PM 40.5811 -75.7114 261° West 221 254 9,600 1,500 Climbing New York Center
05:42PM 40.5772 -75.8069 267° West 241 277 10,000 1,140 Climbing New York Center
05:43PM 40.5750 -75.9050 268° West 268 308 11,900 1,320 Climbing New York Center
05:44PM 40.5888 -76.1132 264° West  Level FlightAware Approximate
05:44PM 40.5722 -76.0142 268° West 292 336 12,700  Level New York Center
05:45PM 40.5686 -76.1394 268° West 327 376 13,300 600 Climbing New York Center
05:46PM 40.5653 -76.2569 268° West 356 410 14,000 900 Climbing New York Center
05:47PM 40.5614 -76.3875 268° West 369 425 15,100 1,200 Climbing New York Center
05:48PM 40.5564 -76.5319 267° West 363 418 16,400 1,020 Climbing New York Center
05:49PM 40.5569 -76.6522 270° West 363 418 17,200 600 Climbing New York Center
05:50PM 40.5697 -76.7708 278° West 368 423 17,700 360 Climbing New York Center
05:51PM 40.5842 -76.9361 277° West 373 429 18,000 420 Climbing New York Center
05:52PM 40.5942 -77.0628 276° West 373 429 18,600 540 Climbing New York Center
05:53PM 40.6072 -77.2061 277° West 384 442 19,200 660 Climbing New York Center
05:54PM 40.6236 -77.3636 278° West 395 455 20,000 720 Climbing New York Center
05:57PM 40.6472 -77.6739 276° West 391 450 21,700 720 Climbing Cleveland Center
05:58PM 40.6589 -77.8158 276° West 386 444 22,400 600 Climbing Cleveland Center
05:59PM 40.6769 -77.9547 280° West 391 450 22,900 540 Climbing Cleveland Center
06:00PM 40.6969 -78.0992 280° West 391 450 23,500 540 Climbing Cleveland Center
06:01PM 40.7164 -78.2408 280° West 396 456 24,000 300 Climbing Cleveland Center
06:02PM 40.7361 -78.3828 280° West 396 456 24,100 300 Climbing Cleveland Center
06:03PM 40.7553 -78.5272 280° West 396 456 24,700 600 Climbing Cleveland Center
06:04PM 40.7744 -78.6719 280° West 401 461 25,300 600 Climbing Cleveland Center
06:05PM 40.7936 -78.8114 280° West 401 461 26,000 1,200 Climbing Cleveland Center
06:06PM 40.8144 -78.9589 281° West 387 445 27,800 1,500 Climbing Cleveland Center
06:07PM 40.8306 -79.0794 280° West 366 421 29,100 1,200 Climbing Cleveland Center
06:08PM 40.8467 -79.1969 280° West 343 395 30,300 1,200 Climbing Cleveland Center
06:09PM 40.8606 -79.3119 279° West 332 382 31,500 1,200 Climbing Cleveland Center
06:10PM 40.8744 -79.4297 279° West 327 376 32,700 1,200 Climbing Cleveland Center
06:11PM 40.8900 -79.5422 280° West 322 371 33,900 1,140 Climbing Cleveland Center
06:12PM 40.9014 -79.6408 279° West 317 365 35,000 1,020 Climbing Cleveland Center
06:13PM 40.9147 -79.7506 279° West 312 359 36,000 480 Climbing Cleveland Center
06:14PM 40.9278 -79.8603 279° West 312 359 36,000  Level Cleveland Center
06:15PM 40.9431 -79.9756 280° West 317 365 36,000  Level Cleveland Center
06:16PM 40.9564 -80.0939 279° West 322 371 36,000  Level Cleveland Center
06:17PM 40.9714 -80.2092 280° West 322 371 36,000  Level Cleveland Center
06:18PM 40.9842 -80.3244 278° West 322 371 36,000  Level Cleveland Center
06:19PM 40.9989 -80.4428 279° West 327 376 36,000  Level Cleveland Center
06:20PM 41.0114 -80.5583 278° West 327 376 36,000  Level Cleveland Center
06:21PM 41.0261 -80.6711 280° West 327 376 36,000  Level Cleveland Center
06:22PM 41.0406 -80.7869 279° West 327 376 36,000  Level Cleveland Center
06:23PM 41.0506 -80.9025 277° West 327 376 36,000  Level Cleveland Center
06:24PM 41.0586 -81.0156 275° West 321 369 36,000  Level Cleveland Center
06:25PM 41.0642 -81.1450 273° West 321 369 36,000  Level Cleveland Center
06:26PM 41.0700 -81.2606 274° West 321 369 36,000  Level Cleveland Center
06:27PM 41.0775 -81.3764 275° West 321 369 36,000  Level Cleveland Center
06:28PM 41.0850 -81.4950 275° West 321 369 36,000  Level Cleveland Center
06:29PM 41.0903 -81.6108 273° West 321 369 36,000  Level Cleveland Center
06:30PM 41.0975 -81.7128 275° West 321 369 36,000  Level Cleveland Center
06:31PM 41.1047 -81.8286 275° West 321 369 36,000  Level Cleveland Center
06:32PM 41.1117 -81.9444 275° West 316 364 36,000  Level Cleveland Center
06:33PM 41.1186 -82.0578 275° West 311 358 36,000  Level Cleveland Center
06:34PM 41.1253 -82.1847 274° West 316 364 36,000  Level Cleveland Center
06:35PM 41.1319 -82.3006 274° West 311 358 36,000  Level Cleveland Center
06:36PM 41.1386 -82.4139 275° West 316 364 36,000  Level Cleveland Center
06:37PM 41.1428 -82.5325 273° West 310 357 36,000  Level Cleveland Center
06:38PM 41.1514 -82.6458 276° West 310 357 36,000  Level Cleveland Center
06:39PM 41.1553 -82.7617 273° West 315 362 36,000  Level Cleveland Center
06:40PM 41.1614 -82.8806 274° West 315 362 36,000  Level Cleveland Center
06:41PM 41.1672 -82.9967 274° West 316 364 36,000  Level Cleveland Center
06:42PM 41.1714 -83.1017 273° West 321 369 36,000  Level Cleveland Center
06:43PM 41.1769 -83.2261 273° West 316 364 36,000  Level Cleveland Center
06:44PM 41.1822 -83.3450 273° West 316 364 36,000  Level Cleveland Center
06:45PM 41.1878 -83.4583 274° West 316 364 36,000  Level Cleveland Center
06:46PM 41.1931 -83.5772 273° West 316 364 36,000  Level Cleveland Center
06:47PM 41.1983 -83.6933 273° West 316 364 36,000  Level Cleveland Center
06:48PM 41.2036 -83.8069 274° West 316 364 36,000 -60 Level Cleveland Center
06:49PM 41.2128 -83.9231 276° West 316 364 35,900 -660 Descending Cleveland Center
06:51PM 41.2208 -84.1825 272° West 329 379 34,000 -600 Descending Chicago Center
06:52PM 41.2244 -84.3025 272° West 326 375 34,000  Level Chicago Center
06:53PM 41.2300 -84.4486 273° West 330 380 34,000  Level Chicago Center
06:54PM 41.2325 -84.5694 272° West 327 376 34,000  Level Chicago Center
06:55PM 41.2356 -84.6947 272° West 338 389 34,000 -120 Level Chicago Center
06:56PM 41.2411 -84.8214 273° West 343 395 33,800 -780 Descending Chicago Center
06:57PM 41.2447 -84.9481 272° West 343 395 32,400 -1,320 Descending Chicago Center
06:58PM 41.2478 -85.0789 272° West 352 405 31,100 -720 Descending Chicago Center
06:59PM 41.2519 -85.2150 272° West 363 418 31,000 -540 Descending Chicago Center
07:00PM 41.2569 -85.3778 272° West 365 420 30,000 -1,260 Descending Chicago Center
07:01PM 41.2606 -85.5131 272° West 365 420 28,500 -1,440 Descending Chicago Center
07:02PM 41.2656 -85.6550 273° West 378 435 27,000 -1,680 Descending Chicago Center
07:03PM 41.2728 -85.7978 274° West 383 441 25,100 -1,020 Descending Chicago Center
07:04PM 41.2786 -85.9458 273° West 395 455 25,000 -60 Descending Chicago Center
07:05PM 41.2950 -86.0900 279° West 395 455 25,000  Level Chicago Center
07:06PM 41.3308 -86.2272 289° West 393 452 25,000  Level Chicago Center
07:08PM 41.3725 -86.3939 288° West 394 453 25,000 -1,260 Level Chicago Center
07:09PM 41.4075 -86.5344 288° West 398 458 22,500 -2,760 Descending Chicago Center
07:10PM 41.4422 -86.6703 289° West 388 447 19,400 -2,700 Descending Chicago Center
07:11PM 41.4728 -86.7978 288° West 384 442 17,000 -2,520 Descending Chicago Center
07:12PM 41.5103 -86.9508 288° West 364 419 14,200 -2,400 Descending Chicago Center
07:13PM 41.5403 -87.0697 289° West 343 395 12,100 -1,080 Descending Chicago Center
07:14PM 41.5681 -87.1875 288° West 336 387 12,000 -300 Descending Chicago Center
07:15PM 41.6156 -87.2978 300° West 348 400 11,500 -960 Descending Chicago Center
07:16PM 41.6758 -87.3983 309° West 347 399 10,100 -780 Descending Chicago Center
07:17PM 41.7464 -87.5164 309° West 345 397 10,000 -180 Descending Chicago Center
07:18PM 41.8003 -87.6056 309° West 310 357 9,800 -780 Descending Chicago Center
07:19PM 41.8500 -87.6833 311° West 270 311 8,500 -960 Descending Chicago TRACON
07:20PM 41.8833 -87.7667 298° West 262 302 8,000 -300 Descending Chicago TRACON
07:21PM 41.9000 -87.8667 283° West 263 303 8,000  Level Chicago TRACON
07:22PM 41.9333 -87.9667 294° West 296 341 8,000  Level Chicago TRACON
07:23PM 41.9667 -88.0500 298° West 271 312 8,000 -900 Level Chicago TRACON
07:24PM 42.0167 -88.1000 323° Northwest 260 299 6,200 -1,980 Descending Chicago TRACON
07:25PM 42.0833 -88.1667 323° Northwest 261 300 4,100 -1,740 Descending Chicago TRACON
07:25PM 42.0881 -88.1772 301° West 259 298 4,000 -120 Descending Chicago Center
07:26PM 42.1467 -88.2333 325° Northwest 259 298 4,000  Level Chicago Center
07:27PM 42.1633 -88.1536 74° East 222 255 4,000  Level Chicago Center
07:28PM 42.1333 -88.0950 125° Southeast 201 231 4,000 -240 Level Chicago Center
07:29PM 42.1000 -88.0667 148° Southeast 184 212 3,600 -840 Descending Chicago TRACON
07:30PM 42.0667 -88.0167 132° Southeast 187 215 2,800 -900 Descending Chicago TRACON
07:31PM 42.0333 -87.9833 143° Southeast 160 184 1,900 -840 Descending Chicago TRACON
07:32PM 42.0000 -87.9500 143° Southeast 132 152 1,200 -720 Descending Chicago TRACON
07:34PM 41.9817 -87.9067 120° Southeast  Level Estimated